»·PEaware :: DAL6154 KSAN-KLAX

DAL6154 :: KSAN-KLAX

FLIGHT INFORMATION

Flight Status: Arrived
Operator:
Delta Air Lines
More flights by this operator :: More flights under this callsign
Pilot: Tyler J. (19619)
Aircraft: BOEING 717-200
(B712)
More flights by this aircraft type
Origin: KSAN San Diego Intl-Lindbergh
United States
Destination: KLAX Los Angeles Intl
United States
More flights between these airports :: More routes between these airports
Route: +PEBLE6 SLI
File this flight plan on PilotEdge
Remarks:
Altitude:
(Current/Filed)
12,000ft
Speed:
(Current/Filed)
330kts
Departed: 07-Aug-18 09:49 PM
Arrived: 07-Aug-18 10:14 PM
Distance/Time
Traveled:
95nm/0:24
Distance/Time
To Go:
Arrived

Flight Plot

Page will automatically refresh every two minutes.


Map Options




Map Legend


Flown Route
Filed Route
Departure Airport
Arrival Airport
Navaid (VOR, NDB)
Fix

Horizontal Profiles

Position Reports

Time Latitude Longitude Heading Altitude Ground
Speed
07-Aug-18 21:23 32.734894 -117.203906 211 23ft 0kts
07-Aug-18 21:24 32.734894 -117.203906 211 23ft 0kts
07-Aug-18 21:25 32.734894 -117.203906 211 23ft 0kts
07-Aug-18 21:26 32.734894 -117.203906 211 23ft 0kts
07-Aug-18 21:27 32.734894 -117.203906 211 23ft 0kts
07-Aug-18 21:28 32.734894 -117.203906 211 23ft 0kts
07-Aug-18 21:29 32.734894 -117.203906 211 23ft 0kts
07-Aug-18 21:30 32.734894 -117.203906 211 23ft 0kts
07-Aug-18 21:31 32.734894 -117.203906 211 23ft 0kts
07-Aug-18 21:32 32.734894 -117.203906 211 23ft 0kts
07-Aug-18 21:33 32.734894 -117.203906 211 23ft 0kts
07-Aug-18 21:34 32.734894 -117.203906 211 23ft 0kts
07-Aug-18 21:35 32.734894 -117.203906 211 23ft 0kts
07-Aug-18 21:36 32.734894 -117.203906 211 23ft 0kts
07-Aug-18 21:37 32.734894 -117.203906 211 23ft 0kts
07-Aug-18 21:38 32.734894 -117.203906 211 23ft 0kts
07-Aug-18 21:39 32.734903 -117.203899 211 23ft 0kts
07-Aug-18 21:40 32.735393 -117.203542 212 23ft 0kts
07-Aug-18 21:41 32.735393 -117.203542 212 23ft 0kts
07-Aug-18 21:42 32.735392 -117.203542 212 23ft 0kts
07-Aug-18 21:43 32.735392 -117.203543 212 23ft 0kts
07-Aug-18 21:44 32.735391 -117.203543 212 23ft 0kts
07-Aug-18 21:45 32.735414 -117.201427 105 23ft 26kts
07-Aug-18 21:46 32.734018 -117.195557 105 23ft 21kts
07-Aug-18 21:47 32.732388 -117.188681 105 23ft 23kts
07-Aug-18 21:48 32.730997 -117.182824 104 23ft 20kts
07-Aug-18 21:49 32.729663 -117.177251 105 23ft 11kts
07-Aug-18 21:50 32.731146 -117.179936 284 23ft 85kts
07-Aug-18 21:51 32.742627 -117.225203 293 1057ft 219kts
07-Aug-18 21:52 32.778963 -117.288048 304 3829ft 252kts
07-Aug-18 21:53 32.829977 -117.354163 326 6027ft 285kts
07-Aug-18 21:54 32.900309 -117.401847 329 8664ft 297kts
07-Aug-18 21:55 32.952086 -117.478722 305 9989ft 298kts
07-Aug-18 21:56 33.002042 -117.556775 306 10012ft 296kts
07-Aug-18 21:57 33.052118 -117.635048 306 10013ft 296kts
07-Aug-18 21:58 33.102040 -117.712822 306 10011ft 295kts
07-Aug-18 21:59 33.152468 -117.790280 306 10011ft 295kts
07-Aug-18 22:00 33.216924 -117.848197 340 10018ft 298kts
07-Aug-18 22:01 33.296529 -117.877345 342 10033ft 299kts
07-Aug-18 22:02 33.376148 -117.906179 342 10029ft 299kts
07-Aug-18 22:03 33.456311 -117.935266 342 10014ft 300kts
07-Aug-18 22:04 33.533419 -117.963299 342 10014ft 300kts
07-Aug-18 22:05 33.613685 -117.992537 342 9991ft 300kts
07-Aug-18 22:06 33.693523 -118.021588 342 9318ft 303kts
07-Aug-18 22:07 33.767553 -118.047643 343 7161ft 275kts
07-Aug-18 22:08 33.839749 -118.064958 352 5756ft 258kts
07-Aug-18 22:09 33.911890 -118.080394 350 3783ft 263kts
07-Aug-18 22:10 33.975132 -118.112442 290 3018ft 243kts
07-Aug-18 22:11 33.972882 -118.184831 250 3082ft 218kts
07-Aug-18 22:12 33.949376 -118.253809 259 2252ft 214kts
07-Aug-18 22:13 33.944323 -118.309991 262 1260ft 161kts
07-Aug-18 22:14 33.939633 -118.362873 263 484ft 143kts
07-Aug-18 22:15 33.935416 -118.404050 270 134ft 31kts
07-Aug-18 22:16 33.936068 -118.406313 295 134ft 0kts
07-Aug-18 22:17 33.936106 -118.407571 264 134ft 18kts
07-Aug-18 22:18 33.936347 -118.408984 355 134ft 0kts
07-Aug-18 22:19 33.936361 -118.408985 355 134ft 0kts
07-Aug-18 22:20 33.937757 -118.408975 53 134ft 9kts
07-Aug-18 22:21 33.938463 -118.403542 83 134ft 13kts
07-Aug-18 22:22 33.940775 -118.403122 355 134ft 7kts
07-Aug-18 22:23 33.941156 -118.403671 269 134ft 0kts
07-Aug-18 22:24 33.941156 -118.403671 269 134ft 0kts
07-Aug-18 22:25 33.941156 -118.403671 269 134ft 0kts
07-Aug-18 22:26 33.941156 -118.403671 269 134ft 0kts
07-Aug-18 22:27 33.941156 -118.403671 269 134ft 0kts

Navigation Log

Ident Type
1. KSAN Airport
2. MELDY Fix
3. PEBLE Fix
4. SLI Navaid
5. KLAX Airport